sensor_id;sensor_type;location;lat;lon;timestamp;temperature;humidity
66831;DHT22;53739;44.224;22.528;2022-08-20T00:00:44;665.70;2432.00
66831;DHT22;53739;44.224;22.528;2022-08-20T00:03:35;665.60;2432.00
66831;DHT22;53739;44.224;22.528;2022-08-20T00:06:06;665.60;2432.00
66831;DHT22;53739;44.224;22.528;2022-08-20T00:08:32;640.30;2432.00
66831;DHT22;53739;44.224;22.528;2022-08-20T00:11:00;640.30;2432.00
66831;DHT22;53739;44.224;22.528;2022-08-20T00:13:39;640.50;2432.00
66831;DHT22;53739;44.224;22.528;2022-08-20T00:16:06;640.50;2432.00
66831;DHT22;53739;44.224;22.528;2022-08-20T00:18:33;640.40;2432.00
66831;DHT22;53739;44.224;22.528;2022-08-20T00:21:03;640.50;2432.00
66831;DHT22;53739;44.224;22.528;2022-08-20T00:23:29;640.50;2432.00
66831;DHT22;53739;44.224;22.528;2022-08-20T00:25:55;640.60;2432.00
66831;DHT22;53739;44.224;22.528;2022-08-20T00:28:20;640.50;2432.00
66831;DHT22;53739;44.224;22.528;2022-08-20T00:30:47;640.50;2432.00
66831;DHT22;53739;44.224;22.528;2022-08-20T00:33:18;640.50;2432.00
66831;DHT22;53739;44.224;22.528;2022-08-20T00:35:47;640.40;2432.00
66831;DHT22;53739;44.224;22.528;2022-08-20T00:38:14;640.20;2432.00
66831;DHT22;53739;44.224;22.528;2022-08-20T00:40:56;640.40;2432.00
66831;DHT22;53739;44.224;22.528;2022-08-20T00:43:37;640.40;2432.00
66831;DHT22;53739;44.224;22.528;2022-08-20T00:46:10;640.40;2432.00
66831;DHT22;53739;44.224;22.528;2022-08-20T00:48:38;640.50;2432.00
66831;DHT22;53739;44.224;22.528;2022-08-20T00:51:10;640.40;2432.00
66831;DHT22;53739;44.224;22.528;2022-08-20T00:53:37;640.30;2432.00
66831;DHT22;53739;44.224;22.528;2022-08-20T00:56:05;640.20;2432.00
66831;DHT22;53739;44.224;22.528;2022-08-20T00:58:32;640.20;2432.00
66831;DHT22;53739;44.224;22.528;2022-08-20T01:00:59;640.20;2432.00
66831;DHT22;53739;44.224;22.528;2022-08-20T01:03:25;640.10;2432.00
66831;DHT22;53739;44.224;22.528;2022-08-20T01:05:52;640.20;2432.00
66831;DHT22;53739;44.224;22.528;2022-08-20T01:08:20;640.20;2432.00
66831;DHT22;53739;44.224;22.528;2022-08-20T01:10:49;640.10;2432.00
66831;DHT22;53739;44.224;22.528;2022-08-20T01:13:22;640.20;2432.00
66831;DHT22;53739;44.224;22.528;2022-08-20T01:15:51;640.20;2432.00
66831;DHT22;53739;44.224;22.528;2022-08-20T01:18:21;640.20;2432.00
66831;DHT22;53739;44.224;22.528;2022-08-20T01:20:53;615.20;2432.00
66831;DHT22;53739;44.224;22.528;2022-08-20T01:23:45;615.30;2432.00
66831;DHT22;53739;44.224;22.528;2022-08-20T01:26:24;615.30;2432.00
66831;DHT22;53739;44.224;22.528;2022-08-20T01:29:07;615.30;2432.00
66831;DHT22;53739;44.224;22.528;2022-08-20T01:31:37;615.30;2432.00
66831;DHT22;53739;44.224;22.528;2022-08-20T01:34:05;615.20;2432.00
66831;DHT22;53739;44.224;22.528;2022-08-20T01:36:36;615.10;2432.00
66831;DHT22;53739;44.224;22.528;2022-08-20T01:39:06;615.00;2432.00
66831;DHT22;53739;44.224;22.528;2022-08-20T01:44:17;615.00;2432.00
66831;DHT22;53739;44.224;22.528;2022-08-20T01:46:45;615.00;2432.00
66831;DHT22;53739;44.224;22.528;2022-08-20T01:49:16;614.90;2432.00
66831;DHT22;53739;44.224;22.528;2022-08-20T01:51:43;614.90;2432.00
66831;DHT22;53739;44.224;22.528;2022-08-20T01:54:09;614.80;2432.00
66831;DHT22;53739;44.224;22.528;2022-08-20T01:56:54;614.90;2432.00
66831;DHT22;53739;44.224;22.528;2022-08-20T01:59:20;614.80;2432.00
66831;DHT22;53739;44.224;22.528;2022-08-20T02:01:46;614.90;2432.00
66831;DHT22;53739;44.224;22.528;2022-08-20T02:04:13;614.80;2432.00
66831;DHT22;53739;44.224;22.528;2022-08-20T02:06:43;614.70;2432.00
66831;DHT22;53739;44.224;22.528;2022-08-20T02:09:10;614.50;2432.00
66831;DHT22;53739;44.224;22.528;2022-08-20T02:11:37;589.70;2432.00
66831;DHT22;53739;44.224;22.528;2022-08-20T02:14:05;614.40;2432.00
66831;DHT22;53739;44.224;22.528;2022-08-20T02:16:35;614.50;2432.00
66831;DHT22;53739;44.224;22.528;2022-08-20T02:19:17;614.50;2432.00
66831;DHT22;53739;44.224;22.528;2022-08-20T02:21:50;614.50;2432.00
66831;DHT22;53739;44.224;22.528;2022-08-20T02:24:17;614.40;2432.00
66831;DHT22;53739;44.224;22.528;2022-08-20T02:26:43;614.50;2432.00
66831;DHT22;53739;44.224;22.528;2022-08-20T02:29:11;614.50;2432.00
66831;DHT22;53739;44.224;22.528;2022-08-20T02:31:39;614.60;2432.00
66831;DHT22;53739;44.224;22.528;2022-08-20T02:34:06;614.60;2432.00
66831;DHT22;53739;44.224;22.528;2022-08-20T02:36:34;614.70;2432.00
66831;DHT22;53739;44.224;22.528;2022-08-20T02:39:04;614.80;2432.00
66831;DHT22;53739;44.224;22.528;2022-08-20T02:41:32;614.70;2432.00
66831;DHT22;53739;44.224;22.528;2022-08-20T02:43:58;614.70;2432.00
66831;DHT22;53739;44.224;22.528;2022-08-20T02:46:24;614.60;2432.00
66831;DHT22;53739;44.224;22.528;2022-08-20T02:48:50;614.60;2432.00
66831;DHT22;53739;44.224;22.528;2022-08-20T02:51:16;589.70;2432.00
66831;DHT22;53739;44.224;22.528;2022-08-20T02:53:42;589.40;2432.00
66831;DHT22;53739;44.224;22.528;2022-08-20T02:56:09;589.20;2432.00
66831;DHT22;53739;44.224;22.528;2022-08-20T02:58:37;589.30;2432.00
66831;DHT22;53739;44.224;22.528;2022-08-20T03:01:05;589.40;2432.00
66831;DHT22;53739;44.224;22.528;2022-08-20T03:03:31;589.40;2432.00
66831;DHT22;53739;44.224;22.528;2022-08-20T03:05:58;589.30;2432.00
66831;DHT22;53739;44.224;22.528;2022-08-20T03:08:26;589.40;2432.00
66831;DHT22;53739;44.224;22.528;2022-08-20T03:10:52;589.40;2432.00
66831;DHT22;53739;44.224;22.528;2022-08-20T03:13:18;589.40;2432.00
66831;DHT22;53739;44.224;22.528;2022-08-20T03:15:52;589.40;2432.00
66831;DHT22;53739;44.224;22.528;2022-08-20T03:18:19;589.50;2432.00
66831;DHT22;53739;44.224;22.528;2022-08-20T03:20:46;589.40;2432.00
66831;DHT22;53739;44.224;22.528;2022-08-20T03:23:12;589.40;2432.00
66831;DHT22;53739;44.224;22.528;2022-08-20T03:25:39;589.40;2432.00
66831;DHT22;53739;44.224;22.528;2022-08-20T03:28:05;589.30;2432.00
66831;DHT22;53739;44.224;22.528;2022-08-20T03:30:31;589.40;2432.00
66831;DHT22;53739;44.224;22.528;2022-08-20T03:32:57;589.50;2432.00
66831;DHT22;53739;44.224;22.528;2022-08-20T03:35:25;589.50;2432.00
66831;DHT22;53739;44.224;22.528;2022-08-20T03:37:53;589.50;2432.00
66831;DHT22;53739;44.224;22.528;2022-08-20T03:40:29;589.50;2432.00
66831;DHT22;53739;44.224;22.528;2022-08-20T03:42:55;589.40;2432.00
66831;DHT22;53739;44.224;22.528;2022-08-20T03:45:23;589.40;2432.00
66831;DHT22;53739;44.224;22.528;2022-08-20T03:47:50;589.50;2432.00
66831;DHT22;53739;44.224;22.528;2022-08-20T03:50:18;589.50;2432.00
66831;DHT22;53739;44.224;22.528;2022-08-20T03:52:44;589.60;2432.00
66831;DHT22;53739;44.224;22.528;2022-08-20T03:55:10;589.60;2432.00
66831;DHT22;53739;44.224;22.528;2022-08-20T03:57:46;589.60;2432.00
66831;DHT22;53739;44.224;22.528;2022-08-20T04:00:15;589.60;2432.00
66831;DHT22;53739;44.224;22.528;2022-08-20T04:02:43;589.60;2432.00
66831;DHT22;53739;44.224;22.528;2022-08-20T04:05:09;589.60;2432.00
66831;DHT22;53739;44.224;22.528;2022-08-20T04:07:35;589.60;2432.00
66831;DHT22;53739;44.224;22.528;2022-08-20T04:10:05;589.60;2432.00
66831;DHT22;53739;44.224;22.528;2022-08-20T04:12:32;589.70;2432.00
66831;DHT22;53739;44.224;22.528;2022-08-20T04:14:58;589.70;2432.00
66831;DHT22;53739;44.224;22.528;2022-08-20T04:17:25;589.70;2432.00
66831;DHT22;53739;44.224;22.528;2022-08-20T04:19:51;589.70;2432.00
66831;DHT22;53739;44.224;22.528;2022-08-20T04:22:17;589.70;2432.00
66831;DHT22;53739;44.224;22.528;2022-08-20T04:24:43;614.40;2432.00
66831;DHT22;53739;44.224;22.528;2022-08-20T04:27:09;614.50;2432.00
66831;DHT22;53739;44.224;22.528;2022-08-20T04:29:39;614.40;2432.00
66831;DHT22;53739;44.224;22.528;2022-08-20T04:32:07;614.50;2432.00
66831;DHT22;53739;44.224;22.528;2022-08-20T04:34:33;614.60;2432.00
66831;DHT22;53739;44.224;22.528;2022-08-20T04:36:59;614.80;2432.00
66831;DHT22;53739;44.224;22.528;2022-08-20T04:39:25;614.80;2432.00
66831;DHT22;53739;44.224;22.528;2022-08-20T04:41:51;614.80;2432.00
66831;DHT22;53739;44.224;22.528;2022-08-20T04:44:17;614.80;2432.00
66831;DHT22;53739;44.224;22.528;2022-08-20T04:46:43;614.70;2432.00
66831;DHT22;53739;44.224;22.528;2022-08-20T04:49:09;614.80;2432.00
66831;DHT22;53739;44.224;22.528;2022-08-20T04:51:35;614.90;2432.00
66831;DHT22;53739;44.224;22.528;2022-08-20T04:54:01;614.90;2432.00
66831;DHT22;53739;44.224;22.528;2022-08-20T04:56:30;615.00;2432.00
66831;DHT22;53739;44.224;22.528;2022-08-20T04:59:00;615.20;2432.00
66831;DHT22;53739;44.224;22.528;2022-08-20T05:01:26;615.30;2432.00
66831;DHT22;53739;44.224;22.528;2022-08-20T05:03:53;640.00;2432.00
66831;DHT22;53739;44.224;22.528;2022-08-20T05:06:20;640.10;2432.00
66831;DHT22;53739;44.224;22.528;2022-08-20T05:08:47;640.30;2432.00
66831;DHT22;53739;44.224;22.528;2022-08-20T05:11:13;640.40;2432.00
66831;DHT22;53739;44.224;22.528;2022-08-20T05:13:40;640.50;2432.00
66831;DHT22;53739;44.224;22.528;2022-08-20T05:16:07;640.70;2432.00
66831;DHT22;53739;44.224;22.528;2022-08-20T05:18:33;640.70;2432.00
66831;DHT22;53739;44.224;22.528;2022-08-20T05:21:01;640.90;2432.00
66831;DHT22;53739;44.224;22.528;2022-08-20T05:23:36;665.70;2432.00
66831;DHT22;53739;44.224;22.528;2022-08-20T05:26:02;665.80;2432.00
66831;DHT22;53739;44.224;22.528;2022-08-20T05:28:34;665.90;2432.00
66831;DHT22;53739;44.224;22.528;2022-08-20T05:31:00;666.20;2432.00
66831;DHT22;53739;44.224;22.528;2022-08-20T05:33:27;666.30;2432.00
66831;DHT22;53739;44.224;22.528;2022-08-20T05:35:55;666.50;2432.00
66831;DHT22;53739;44.224;22.528;2022-08-20T05:38:25;691.20;2432.00
66831;DHT22;53739;44.224;22.528;2022-08-20T05:40:51;691.20;2432.00
66831;DHT22;53739;44.224;22.528;2022-08-20T05:43:18;691.40;2432.00
66831;DHT22;53739;44.224;22.528;2022-08-20T05:45:45;691.60;2432.00
66831;DHT22;53739;44.224;22.528;2022-08-20T05:48:15;691.70;2432.00
66831;DHT22;53739;44.224;22.528;2022-08-20T05:50:42;691.80;2432.00
66831;DHT22;53739;44.224;22.528;2022-08-20T05:53:09;691.90;2432.00
66831;DHT22;53739;44.224;22.528;2022-08-20T05:55:35;692.00;2432.00
66831;DHT22;53739;44.224;22.528;2022-08-20T05:58:04;692.10;2432.00
66831;DHT22;53739;44.224;22.528;2022-08-20T06:00:31;716.80;2432.00
66831;DHT22;53739;44.224;22.528;2022-08-20T06:02:57;716.90;2432.00
66831;DHT22;53739;44.224;22.528;2022-08-20T06:05:42;717.00;2432.00
66831;DHT22;53739;44.224;22.528;2022-08-20T06:08:09;717.20;2432.00
66831;DHT22;53739;44.224;22.528;2022-08-20T06:10:37;717.40;2432.00
66831;DHT22;53739;44.224;22.528;2022-08-20T06:13:03;717.40;2432.00
66831;DHT22;53739;44.224;22.528;2022-08-20T06:15:30;717.50;2432.00
66831;DHT22;53739;44.224;22.528;2022-08-20T06:17:56;742.40;2432.00
66831;DHT22;53739;44.224;22.528;2022-08-20T06:20:23;742.50;2432.00
66831;DHT22;53739;44.224;22.528;2022-08-20T06:22:49;742.50;2432.00
66831;DHT22;53739;44.224;22.528;2022-08-20T06:25:14;742.60;2432.00
66831;DHT22;53739;44.224;22.528;2022-08-20T06:27:42;742.80;2432.00
66831;DHT22;53739;44.224;22.528;2022-08-20T06:30:11;743.10;2432.00
66831;DHT22;53739;44.224;22.528;2022-08-20T06:32:37;743.20;2432.00
66831;DHT22;53739;44.224;22.528;2022-08-20T06:35:06;768.00;2432.00
66831;DHT22;53739;44.224;22.528;2022-08-20T06:37:33;768.10;2432.00
66831;DHT22;53739;44.224;22.528;2022-08-20T06:40:05;768.30;2432.00
66831;DHT22;53739;44.224;22.528;2022-08-20T06:42:31;768.60;2355.20
66831;DHT22;53739;44.224;22.528;2022-08-20T06:44:57;768.90;2355.20
66831;DHT22;53739;44.224;22.528;2022-08-20T06:47:24;768.90;2304.00
66831;DHT22;53739;44.224;22.528;2022-08-20T06:49:51;793.60;2355.20
66831;DHT22;53739;44.224;22.528;2022-08-20T06:52:16;793.70;2304.00
66831;DHT22;53739;44.224;22.528;2022-08-20T06:54:43;794.00;2329.60
66831;DHT22;53739;44.224;22.528;2022-08-20T06:57:09;794.20;2329.60
66831;DHT22;53739;44.224;22.528;2022-08-20T06:59:35;794.50;2278.40
66831;DHT22;53739;44.224;22.528;2022-08-20T07:02:01;819.40;2278.40
66831;DHT22;53739;44.224;22.528;2022-08-20T07:04:27;819.60;2150.40
66831;DHT22;53739;44.224;22.528;2022-08-20T07:06:53;819.90;2176.00
66831;DHT22;53739;44.224;22.528;2022-08-20T07:09:20;819.80;2150.40
66831;DHT22;53739;44.224;22.528;2022-08-20T07:11:47;819.80;2227.20
66831;DHT22;53739;44.224;22.528;2022-08-20T07:14:14;820.10;2099.20
66831;DHT22;53739;44.224;22.528;2022-08-20T07:16:41;820.10;2099.20
66831;DHT22;53739;44.224;22.528;2022-08-20T07:19:07;820.10;2099.20
66831;DHT22;53739;44.224;22.528;2022-08-20T07:21:33;820.10;2176.00
66831;DHT22;53739;44.224;22.528;2022-08-20T07:23:59;820.10;2099.20
66831;DHT22;53739;44.224;22.528;2022-08-20T07:26:25;820.10;2073.60
66831;DHT22;53739;44.224;22.528;2022-08-20T07:28:52;844.90;2124.80
66831;DHT22;53739;44.224;22.528;2022-08-20T07:31:19;845.00;2099.20
66831;DHT22;53739;44.224;22.528;2022-08-20T07:34:03;845.00;2124.80
66831;DHT22;53739;44.224;22.528;2022-08-20T07:36:30;844.90;2124.80
66831;DHT22;53739;44.224;22.528;2022-08-20T07:38:56;845.00;2048.00
66831;DHT22;53739;44.224;22.528;2022-08-20T07:41:22;845.10;2048.00
66831;DHT22;53739;44.224;22.528;2022-08-20T07:43:47;845.20;2099.20
66831;DHT22;53739;44.224;22.528;2022-08-20T07:46:15;845.20;2022.40
66831;DHT22;53739;44.224;22.528;2022-08-20T07:48:43;845.20;2048.00
66831;DHT22;53739;44.224;22.528;2022-08-20T07:51:13;845.20;2022.40
66831;DHT22;53739;44.224;22.528;2022-08-20T07:53:39;845.10;2124.80
66831;DHT22;53739;44.224;22.528;2022-08-20T07:56:09;845.20;2022.40
66831;DHT22;53739;44.224;22.528;2022-08-20T07:58:38;845.40;1996.80
66831;DHT22;53739;44.224;22.528;2022-08-20T08:01:06;845.60;2073.60
66831;DHT22;53739;44.224;22.528;2022-08-20T08:03:33;870.40;1996.80
66831;DHT22;53739;44.224;22.528;2022-08-20T08:05:59;870.50;1945.60
66831;DHT22;53739;44.224;22.528;2022-08-20T08:08:27;870.70;2022.40
66831;DHT22;53739;44.224;22.528;2022-08-20T08:10:58;870.60;1996.80
66831;DHT22;53739;44.224;22.528;2022-08-20T08:13:25;870.60;1945.60
66831;DHT22;53739;44.224;22.528;2022-08-20T08:15:54;870.60;1996.80
66831;DHT22;53739;44.224;22.528;2022-08-20T08:18:28;870.70;1996.80
66831;DHT22;53739;44.224;22.528;2022-08-20T08:20:56;870.80;1894.40
66831;DHT22;53739;44.224;22.528;2022-08-20T08:23:23;870.90;1920.00
66831;DHT22;53739;44.224;22.528;2022-08-20T08:25:50;870.90;1971.20
66831;DHT22;53739;44.224;22.528;2022-08-20T08:28:17;871.10;1996.80
66831;DHT22;53739;44.224;22.528;2022-08-20T08:30:44;871.10;1894.40
66831;DHT22;53739;44.224;22.528;2022-08-20T08:33:25;871.30;1920.00
66831;DHT22;53739;44.224;22.528;2022-08-20T08:35:58;896.10;1894.40
66831;DHT22;53739;44.224;22.528;2022-08-20T08:38:25;896.30;1920.00
66831;DHT22;53739;44.224;22.528;2022-08-20T08:40:55;896.30;1868.80
66831;DHT22;53739;44.224;22.528;2022-08-20T08:43:24;896.30;1868.80
66831;DHT22;53739;44.224;22.528;2022-08-20T08:45:59;896.50;1894.40
66831;DHT22;53739;44.224;22.528;2022-08-20T08:48:31;896.50;1920.00
66831;DHT22;53739;44.224;22.528;2022-08-20T08:51:00;896.30;1894.40
66831;DHT22;53739;44.224;22.528;2022-08-20T08:53:31;896.30;1817.60
66831;DHT22;53739;44.224;22.528;2022-08-20T08:55:59;871.20;1843.20
66831;DHT22;53739;44.224;22.528;2022-08-20T08:58:25;871.30;1996.80
66831;DHT22;53739;44.224;22.528;2022-08-20T09:00:52;896.10;1868.80
66831;DHT22;53739;44.224;22.528;2022-08-20T09:03:27;896.00;1868.80
66831;DHT22;53739;44.224;22.528;2022-08-20T09:06:03;871.30;1792.00
66831;DHT22;53739;44.224;22.528;2022-08-20T09:08:32;871.10;1868.80
66831;DHT22;53739;44.224;22.528;2022-08-20T09:11:06;871.00;1920.00
66831;DHT22;53739;44.224;22.528;2022-08-20T09:13:33;870.90;1920.00
66831;DHT22;53739;44.224;22.528;2022-08-20T09:15:59;870.90;1894.40
66831;DHT22;53739;44.224;22.528;2022-08-20T09:18:25;870.70;1920.00
66831;DHT22;53739;44.224;22.528;2022-08-20T09:20:51;870.60;1817.60
66831;DHT22;53739;44.224;22.528;2022-08-20T09:23:17;870.50;1945.60
66831;DHT22;53739;44.224;22.528;2022-08-20T09:25:43;870.50;1843.20
66831;DHT22;53739;44.224;22.528;2022-08-20T09:28:09;870.60;1843.20
66831;DHT22;53739;44.224;22.528;2022-08-20T09:30:35;870.70;1868.80
66831;DHT22;53739;44.224;22.528;2022-08-20T09:33:01;870.70;1920.00
66831;DHT22;53739;44.224;22.528;2022-08-20T09:35:27;870.70;1843.20
66831;DHT22;53739;44.224;22.528;2022-08-20T09:37:53;870.60;1843.20
66831;DHT22;53739;44.224;22.528;2022-08-20T09:40:20;870.60;1843.20
66831;DHT22;53739;44.224;22.528;2022-08-20T09:42:47;870.60;1894.40
66831;DHT22;53739;44.224;22.528;2022-08-20T09:45:14;870.50;1868.80
66831;DHT22;53739;44.224;22.528;2022-08-20T09:47:40;870.50;1868.80
66831;DHT22;53739;44.224;22.528;2022-08-20T09:50:06;870.50;1843.20
66831;DHT22;53739;44.224;22.528;2022-08-20T09:52:36;870.50;1843.20
66831;DHT22;53739;44.224;22.528;2022-08-20T09:55:11;870.50;1868.80
66831;DHT22;53739;44.224;22.528;2022-08-20T09:57:39;870.50;1843.20
66831;DHT22;53739;44.224;22.528;2022-08-20T10:00:07;870.50;1817.60
66831;DHT22;53739;44.224;22.528;2022-08-20T10:02:34;845.70;1792.00
66831;DHT22;53739;44.224;22.528;2022-08-20T10:05:00;845.70;1868.80
66831;DHT22;53739;44.224;22.528;2022-08-20T10:07:26;845.50;1843.20
66831;DHT22;53739;44.224;22.528;2022-08-20T10:09:51;845.70;1843.20
66831;DHT22;53739;44.224;22.528;2022-08-20T10:12:17;845.50;1894.40
66831;DHT22;53739;44.224;22.528;2022-08-20T10:14:43;845.40;1868.80
66831;DHT22;53739;44.224;22.528;2022-08-20T10:17:09;845.40;1920.00
66831;DHT22;53739;44.224;22.528;2022-08-20T10:19:35;845.20;1868.80
66831;DHT22;53739;44.224;22.528;2022-08-20T10:22:01;845.00;1843.20
66831;DHT22;53739;44.224;22.528;2022-08-20T10:24:28;845.00;1894.40
66831;DHT22;53739;44.224;22.528;2022-08-20T10:26:59;845.00;1868.80
66831;DHT22;53739;44.224;22.528;2022-08-20T10:29:26;845.20;1868.80
66831;DHT22;53739;44.224;22.528;2022-08-20T10:31:53;845.20;1868.80
66831;DHT22;53739;44.224;22.528;2022-08-20T10:34:19;845.00;1843.20
66831;DHT22;53739;44.224;22.528;2022-08-20T10:36:45;845.00;1817.60
66831;DHT22;53739;44.224;22.528;2022-08-20T10:39:12;845.00;1868.80
66831;DHT22;53739;44.224;22.528;2022-08-20T10:41:38;845.20;1894.40
66831;DHT22;53739;44.224;22.528;2022-08-20T10:44:04;845.20;1945.60
66831;DHT22;53739;44.224;22.528;2022-08-20T10:46:30;845.20;1971.20
66831;DHT22;53739;44.224;22.528;2022-08-20T10:48:55;845.20;1894.40
66831;DHT22;53739;44.224;22.528;2022-08-20T10:51:21;845.00;1868.80
66831;DHT22;53739;44.224;22.528;2022-08-20T10:53:47;845.00;1920.00
66831;DHT22;53739;44.224;22.528;2022-08-20T10:56:13;845.20;1920.00
66831;DHT22;53739;44.224;22.528;2022-08-20T10:58:39;845.20;1894.40
66831;DHT22;53739;44.224;22.528;2022-08-20T11:01:04;845.00;1894.40
66831;DHT22;53739;44.224;22.528;2022-08-20T11:03:30;844.90;1894.40
66831;DHT22;53739;44.224;22.528;2022-08-20T11:05:56;844.90;1945.60
66831;DHT22;53739;44.224;22.528;2022-08-20T11:08:22;844.90;1920.00
66831;DHT22;53739;44.224;22.528;2022-08-20T11:10:48;844.90;1945.60
66831;DHT22;53739;44.224;22.528;2022-08-20T11:13:14;844.90;1894.40
66831;DHT22;53739;44.224;22.528;2022-08-20T11:15:43;844.90;1894.40
66831;DHT22;53739;44.224;22.528;2022-08-20T11:18:12;844.80;1945.60
66831;DHT22;53739;44.224;22.528;2022-08-20T11:20:38;844.80;1894.40
66831;DHT22;53739;44.224;22.528;2022-08-20T11:23:05;820.00;1894.40
66831;DHT22;53739;44.224;22.528;2022-08-20T11:25:32;820.10;1920.00
66831;DHT22;53739;44.224;22.528;2022-08-20T11:27:58;820.10;1945.60
66831;DHT22;53739;44.224;22.528;2022-08-20T11:30:30;819.90;1920.00
66831;DHT22;53739;44.224;22.528;2022-08-20T11:32:58;819.90;1945.60
66831;DHT22;53739;44.224;22.528;2022-08-20T11:35:25;819.90;1971.20
66831;DHT22;53739;44.224;22.528;2022-08-20T11:37:52;819.80;1945.60
66831;DHT22;53739;44.224;22.528;2022-08-20T11:40:20;819.80;1971.20
66831;DHT22;53739;44.224;22.528;2022-08-20T11:42:46;819.70;1996.80
66831;DHT22;53739;44.224;22.528;2022-08-20T11:45:12;819.80;1971.20
66831;DHT22;53739;44.224;22.528;2022-08-20T11:47:39;819.80;1996.80
66831;DHT22;53739;44.224;22.528;2022-08-20T11:50:12;819.80;1996.80
66831;DHT22;53739;44.224;22.528;2022-08-20T11:52:38;819.80;2099.20
66831;DHT22;53739;44.224;22.528;2022-08-20T11:55:06;819.80;1996.80
66831;DHT22;53739;44.224;22.528;2022-08-20T11:57:34;819.80;1945.60
66831;DHT22;53739;44.224;22.528;2022-08-20T12:00:04;819.70;1996.80
66831;DHT22;53739;44.224;22.528;2022-08-20T12:02:31;819.80;1971.20
66831;DHT22;53739;44.224;22.528;2022-08-20T12:04:57;819.70;2048.00
66831;DHT22;53739;44.224;22.528;2022-08-20T12:07:24;819.60;2022.40
66831;DHT22;53739;44.224;22.528;2022-08-20T12:09:51;819.60;2048.00
66831;DHT22;53739;44.224;22.528;2022-08-20T12:12:18;819.60;2048.00
66831;DHT22;53739;44.224;22.528;2022-08-20T12:14:45;819.60;2124.80
66831;DHT22;53739;44.224;22.528;2022-08-20T12:17:23;819.30;2048.00
66831;DHT22;53739;44.224;22.528;2022-08-20T12:19:50;819.30;2099.20
66831;DHT22;53739;44.224;22.528;2022-08-20T12:22:17;794.50;2124.80
66831;DHT22;53739;44.224;22.528;2022-08-20T12:24:43;794.50;2176.00
66831;DHT22;53739;44.224;22.528;2022-08-20T12:27:14;794.50;2099.20
66831;DHT22;53739;44.224;22.528;2022-08-20T12:29:43;794.50;2124.80
66831;DHT22;53739;44.224;22.528;2022-08-20T12:32:09;794.50;2201.60
66831;DHT22;53739;44.224;22.528;2022-08-20T12:34:38;819.20;2150.40
66831;DHT22;53739;44.224;22.528;2022-08-20T12:37:14;819.30;2176.00
66831;DHT22;53739;44.224;22.528;2022-08-20T12:39:43;819.60;2124.80
66831;DHT22;53739;44.224;22.528;2022-08-20T12:42:10;819.70;2073.60
66831;DHT22;53739;44.224;22.528;2022-08-20T12:44:36;819.90;2048.00
66831;DHT22;53739;44.224;22.528;2022-08-20T12:47:28;820.00;1971.20
66831;DHT22;53739;44.224;22.528;2022-08-20T12:50:00;844.80;2048.00
66831;DHT22;53739;44.224;22.528;2022-08-20T12:52:28;845.10;2124.80
66831;DHT22;53739;44.224;22.528;2022-08-20T12:54:56;845.40;1920.00
66831;DHT22;53739;44.224;22.528;2022-08-20T12:57:28;845.50;1817.60
66831;DHT22;53739;44.224;22.528;2022-08-20T12:59:56;845.50;1843.20
66831;DHT22;53739;44.224;22.528;2022-08-20T13:02:22;845.50;1792.00
66831;DHT22;53739;44.224;22.528;2022-08-20T13:04:48;845.50;1817.60
66831;DHT22;53739;44.224;22.528;2022-08-20T13:07:14;845.60;1843.20
66831;DHT22;53739;44.224;22.528;2022-08-20T13:09:40;870.50;1894.40
66831;DHT22;53739;44.224;22.528;2022-08-20T13:12:07;870.60;1740.80
66831;DHT22;53739;44.224;22.528;2022-08-20T13:14:34;870.70;1766.40
66831;DHT22;53739;44.224;22.528;2022-08-20T13:17:01;870.70;1766.40
66831;DHT22;53739;44.224;22.528;2022-08-20T13:19:28;870.60;1792.00
66831;DHT22;53739;44.224;22.528;2022-08-20T13:21:54;870.40;1740.80
66831;DHT22;53739;44.224;22.528;2022-08-20T13:24:21;845.70;1740.80
66831;DHT22;53739;44.224;22.528;2022-08-20T13:26:48;845.70;1766.40
66831;DHT22;53739;44.224;22.528;2022-08-20T13:29:15;845.60;1792.00
66831;DHT22;53739;44.224;22.528;2022-08-20T13:31:41;845.50;1792.00
66831;DHT22;53739;44.224;22.528;2022-08-20T13:34:08;845.40;1792.00
66831;DHT22;53739;44.224;22.528;2022-08-20T13:36:34;845.30;1792.00
66831;DHT22;53739;44.224;22.528;2022-08-20T13:39:02;845.30;1817.60
66831;DHT22;53739;44.224;22.528;2022-08-20T13:41:28;845.40;1817.60
66831;DHT22;53739;44.224;22.528;2022-08-20T13:43:54;845.40;1817.60
66831;DHT22;53739;44.224;22.528;2022-08-20T13:46:20;845.20;1843.20
66831;DHT22;53739;44.224;22.528;2022-08-20T13:48:45;845.10;1894.40
66831;DHT22;53739;44.224;22.528;2022-08-20T13:51:11;845.00;1894.40
66831;DHT22;53739;44.224;22.528;2022-08-20T13:53:37;844.90;1920.00
66831;DHT22;53739;44.224;22.528;2022-08-20T13:56:03;844.90;1920.00
66831;DHT22;53739;44.224;22.528;2022-08-20T13:58:29;845.00;1920.00
66831;DHT22;53739;44.224;22.528;2022-08-20T14:00:55;844.90;1920.00
66831;DHT22;53739;44.224;22.528;2022-08-20T14:03:23;844.90;1920.00
66831;DHT22;53739;44.224;22.528;2022-08-20T14:05:49;819.80;1996.80
66831;DHT22;53739;44.224;22.528;2022-08-20T14:08:18;819.60;2048.00
66831;DHT22;53739;44.224;22.528;2022-08-20T14:10:47;819.70;2073.60
66831;DHT22;53739;44.224;22.528;2022-08-20T14:13:23;819.60;2124.80
66831;DHT22;53739;44.224;22.528;2022-08-20T14:15:49;819.20;2150.40
66831;DHT22;53739;44.224;22.528;2022-08-20T14:18:15;794.30;2176.00
66831;DHT22;53739;44.224;22.528;2022-08-20T14:20:42;794.00;2227.20
66831;DHT22;53739;44.224;22.528;2022-08-20T14:23:08;794.10;2227.20
66831;DHT22;53739;44.224;22.528;2022-08-20T14:25:35;794.00;2278.40
66831;DHT22;53739;44.224;22.528;2022-08-20T14:28:16;793.70;2278.40
66831;DHT22;53739;44.224;22.528;2022-08-20T14:30:42;793.60;2304.00
66831;DHT22;53739;44.224;22.528;2022-08-20T14:33:08;793.60;2304.00
66831;DHT22;53739;44.224;22.528;2022-08-20T14:35:34;793.70;2278.40
66831;DHT22;53739;44.224;22.528;2022-08-20T14:38:00;793.60;2304.00
66831;DHT22;53739;44.224;22.528;2022-08-20T14:40:26;793.60;2304.00
66831;DHT22;53739;44.224;22.528;2022-08-20T14:42:54;768.90;2278.40